Sidnaw, MI

1:52 AM EDT on May 26, 2015 (GMT -0400)
RAWS | | Change Station
CLOSE
Current Station
Personal Weather Station
Location: Covington, MI
Elevation: 1269 ft
Nearby Weather Stations

Elev 1269 ft 46.60 °N, 88.63 °W | Updated 45 minutes ago

Partly Cloudy
Partly Cloudy
56 °F
Feels Like 56 °F
N
2
Wind Variable Wind from SSW
Gusts 5.0 mph

Today
High -- | Low -- °F
--% Chance of Precip.
Yesterday
High -- | Low -- °F
Precip. -- in
6:10 AM 9:34 PM
First Quarter, 55% visible
Pressure 29.81 in
Visibility 10.0 miles
Clouds Scattered Clouds 8500 ft
Dew Point 55 °F
Humidity 97%
Rainfall in
Snow Depth Not available.
UV 0 out of 12
Pollen .90 out of 12
Air Quality Not available.
Flu Activity Sporadic
METAR KLNL 260535Z AUTO 21004KT 10SM SCT085 16/15 A2981 RMK AO2 T01560146

More Conditions Fewer Conditions

Pressure 29.81 in
Visibility 10.0 miles
Clouds Scattered Clouds 8500 ft
Dew Point 55 °F
Humidity 97%
Rainfall in
Snow Depth Not available.
UV 0 out of 12
Pollen .90 out of 12
Air Quality Not available.
Flu Activity Sporadic
METAR KLNL 260535Z AUTO 21004KT 10SM SCT085 16/15 A2981 RMK AO2 T01560146

More Conditions Fewer Conditions

10-Day Weather Forecast

Almanac

Astronomy

May. 26, 2015 Rise Set
Actual Time
Civil Twilight
Nautical Twilight
Astronomical Twilight
Moon
Length of Visible Light
Length of Day
Tomorrow will be .
, % of the Moon is Illuminated

Today's Extremes

State Highs State Lows

Community

WunderPhotos

Upload Photos

1,824,289 photos uploaded!

WunderBlogs® & News

Nearby

Air Quality

  Air Quality AQ Index Pollutant
Not available.

Snow Depth

Station Depth Elevation

Earthquake Activity

City Distance Mag. Time & Date
Minimum magnitude displayed is 2.5.

Coastal Water Temperatures

Place Temperature

Stations

Nearby Weather Stations

Station Location Temp. Windchill Dew Point Humidity Wind Precip. Elev Updated Type